Ruma, Serbia
Current Conditions -  °F | °C
As of 5:00 PM on Monday 24 Nov 2014 (Local Time) from LYBT Reporting Station
Clear Clear  
Wind Chill: 38°   Ceiling: Unl
Heat Index: 43°   Visibility: 6mi
Dew Point: 34°   Wind: 8mph
Humidity: 70%   Direction: 100°E
Pressure: 30.33"   Gusts: NA
Location:  45°N, 19.83°E
Report Text: LYBT 241500Z 10007KT CAVOK 06/01 Q1027 NOSIG
Loading
Personal Weather Stations






























Interactive Weather Map New forecast layout! Learn more

10-Day Weather Forecast

Advertisements
Track Severe Weather on mobile